Time;durP1;ratioP1;P1;durP2;ratioP2;P2;SDS_P1;SDS_P2;PMS_P1;PMS_P2;Temp;Humidity;BMP_temperature;BMP_pressure;BME280_temperature;BME280_humidity;BME280_pressure;Samples;Min_cycle;Max_cycle;Signal;HPM_P1;HPM_P2
2023/12/18 00:00:09;;;;;;;105.38;13.75;;;;;;;;;;4908154;29;20151;-89
2023/12/18 00:02:36;;;;;;;47.70;10.18;;;;;;;;;;4900951;29;20052;-88
2023/12/18 00:05:02;;;;;;;48.85;9.55;;;;;;;;;;4879190;29;20077;-88
2023/12/18 00:07:29;;;;;;;98.13;13.40;;;;;;;;;;4878091;29;20040;-89
2023/12/18 00:09:56;;;;;;;64.82;11.57;;;;;;;;;;4902295;29;20048;-89
2023/12/18 00:12:22;;;;;;;48.42;10.40;;;;;;;;;;4904760;29;20108;-89
2023/12/18 00:14:49;;;;;;;136.40;14.88;;;;;;;;;;4898896;29;20067;-88
2023/12/18 00:17:15;;;;;;;55.67;10.40;;;;;;;;;;4906985;29;20037;-89
2023/12/18 00:19:42;;;;;;;75.32;12.68;;;;;;;;;;4884859;29;20053;-89
2023/12/18 00:22:08;;;;;;;113.35;13.73;;;;;;;;;;4905872;29;20054;-89
2023/12/18 00:24:35;;;;;;;44.88;9.70;;;;;;;;;;4900420;29;20044;-89
2023/12/18 00:27:02;;;;;;;53.78;10.13;;;;;;;;;;4910687;29;20055;-88
2023/12/18 00:29:28;;;;;;;101.57;12.60;;;;;;;;;;4882306;29;20487;-89
2023/12/18 00:31:55;;;;;;;73.78;11.23;;;;;;;;;;4904035;29;20119;-88
2023/12/18 00:34:22;;;;;;;80.82;11.98;;;;;;;;;;4879812;29;20139;-89
2023/12/18 00:36:48;;;;;;;91.15;12.18;;;;;;;;;;4897419;29;20055;-89
2023/12/18 00:39:17;;;;;;;56.60;10.45;;;;;;;;;;4906214;29;20490;-89
2023/12/18 00:41:45;;;;;;;61.20;11.23;;;;;;;;;;4861597;29;20128;-88
2023/12/18 00:44:11;;;;;;;75.35;11.90;;;;;;;;;;4907006;29;20052;-89
2023/12/18 00:46:38;;;;;;;109.53;12.88;;;;;;;;;;4898500;29;20037;-89
2023/12/18 00:49:04;;;;;;;40.10;8.60;;;;;;;;;;4905764;29;20115;-88
2023/12/18 00:51:31;;;;;;;77.95;10.90;;;;;;;;;;4897072;29;20105;-89
2023/12/18 00:53:58;;;;;;;70.70;11.40;;;;;;;;;;4903149;29;20071;-89
2023/12/18 00:56:24;;;;;;;47.35;10.30;;;;;;;;;;4877741;29;20079;-88
2023/12/18 00:58:51;;;;;;;77.50;12.02;;;;;;;;;;4900540;29;20069;-89
2023/12/18 01:01:17;;;;;;;72.35;11.15;;;;;;;;;;4904291;29;20124;-88
2023/12/18 01:03:44;;;;;;;69.13;11.07;;;;;;;;;;4893641;29;20076;-88
2023/12/18 01:06:11;;;;;;;91.93;12.15;;;;;;;;;;4887352;29;20135;-88
2023/12/18 01:08:37;;;;;;;48.92;9.93;;;;;;;;;;4880307;29;20104;-89
2023/12/18 01:11:04;;;;;;;31.33;8.35;;;;;;;;;;4907702;29;20448;-89
2023/12/18 01:13:31;;;;;;;80.25;11.60;;;;;;;;;;4898098;29;20135;-88
2023/12/18 01:15:58;;;;;;;85.93;12.40;;;;;;;;;;4908385;29;20040;-89
2023/12/18 01:18:25;;;;;;;49.78;9.80;;;;;;;;;;4905505;29;22564;-89
2023/12/18 01:20:52;;;;;;;59.88;10.02;;;;;;;;;;4907683;29;20045;-89
2023/12/18 01:23:18;;;;;;;122.90;14.00;;;;;;;;;;4884770;29;20045;-88
2023/12/18 01:25:45;;;;;;;63.05;9.77;;;;;;;;;;4865470;29;20477;-89
2023/12/18 01:28:11;;;;;;;56.67;10.18;;;;;;;;;;4897940;29;20489;-89
2023/12/18 01:30:38;;;;;;;93.13;12.63;;;;;;;;;;4880775;29;20076;-89
2023/12/18 01:33:05;;;;;;;34.78;8.73;;;;;;;;;;4910825;29;20047;-89
2023/12/18 01:35:33;;;;;;;35.55;8.43;;;;;;;;;;4901454;29;20082;-89
2023/12/18 01:37:59;;;;;;;94.97;10.88;;;;;;;;;;4909106;29;20051;-89
2023/12/18 01:40:27;;;;;;;43.33;8.88;;;;;;;;;;4905071;29;20096;-89
2023/12/18 01:42:53;;;;;;;32.67;8.35;;;;;;;;;;4883756;29;20048;-89
2023/12/18 01:45:20;;;;;;;105.38;12.25;;;;;;;;;;4905861;29;20123;-89
2023/12/18 01:47:47;;;;;;;49.55;8.75;;;;;;;;;;4880040;29;20120;-89
2023/12/18 01:50:14;;;;;;;60.72;10.30;;;;;;;;;;4892347;29;20045;-88
2023/12/18 01:52:41;;;;;;;105.18;12.73;;;;;;;;;;4868336;29;20048;-89
2023/12/18 01:55:08;;;;;;;25.75;7.38;;;;;;;;;;4910209;29;20115;-89
2023/12/18 01:57:35;;;;;;;58.90;10.27;;;;;;;;;;4884757;29;20059;-89
2023/12/18 02:00:02;;;;;;;82.93;10.45;;;;;;;;;;4904113;29;20126;-89
2023/12/18 02:02:34;;;;;;;28.63;7.53;;;;;;;;;;5133980;23;20056;-93
2023/12/18 02:05:01;;;;;;;31.73;8.63;;;;;;;;;;4889079;29;20044;-94
2023/12/18 02:07:28;;;;;;;126.75;12.80;;;;;;;;;;4904973;29;20040;-94
2023/12/18 02:09:55;;;;;;;96.15;11.30;;;;;;;;;;4907168;29;20508;-93
2023/12/18 02:12:21;;;;;;;102.70;12.05;;;;;;;;;;4904260;29;20045;-93
2023/12/18 02:14:48;;;;;;;134.90;13.00;;;;;;;;;;4903808;29;20047;-94
2023/12/18 02:17:15;;;;;;;78.88;10.70;;;;;;;;;;4908866;29;20051;-93
2023/12/18 02:19:41;;;;;;;69.78;10.32;;;;;;;;;;4901329;29;20040;-93
2023/12/18 02:22:08;;;;;;;107.00;11.50;;;;;;;;;;4907842;29;20436;-93
2023/12/18 02:24:35;;;;;;;41.42;8.35;;;;;;;;;;4901260;29;20044;-93
2023/12/18 02:27:02;;;;;;;40.63;7.85;;;;;;;;;;4893382;29;20052;-93
2023/12/18 02:29:29;;;;;;;116.25;12.38;;;;;;;;;;4899332;29;20041;-94
2023/12/18 02:31:57;;;;;;;76.50;10.13;;;;;;;;;;4887534;29;20044;-93
2023/12/18 02:34:27;;;;;;;46.70;8.15;;;;;;;;;;4899433;29;20472;-93
2023/12/18 02:37:01;;;;;;;33.60;7.57;;;;;;;;;;4904916;29;20040;-94
2023/12/18 02:39:28;;;;;;;94.78;10.63;;;;;;;;;;4890330;29;20104;-94
2023/12/18 02:41:55;;;;;;;95.15;10.45;;;;;;;;;;4900326;29;20115;-94
2023/12/18 02:44:21;;;;;;;55.97;8.38;;;;;;;;;;4906755;29;20075;-94
2023/12/18 02:46:48;;;;;;;146.75;14.38;;;;;;;;;;4899800;29;20127;-94
2023/12/18 02:49:15;;;;;;;61.72;8.57;;;;;;;;;;4910657;29;20045;-93
2023/12/18 02:51:50;;;;;;;50.58;7.65;;;;;;;;;;4883838;29;20045;-93
2023/12/18 02:54:21;;;;;;;79.50;10.02;;;;;;;;;;4908784;29;20056;-93
2023/12/18 02:56:48;;;;;;;159.02;15.32;;;;;;;;;;4868779;29;20036;-93
2023/12/18 02:59:15;;;;;;;96.30;11.68;;;;;;;;;;4906248;29;20566;-93
2023/12/18 03:01:45;;;;;;;126.45;13.07;;;;;;;;;;4903279;29;20072;-94
2023/12/18 03:04:18;;;;;;;138.07;13.65;;;;;;;;;;4902306;29;20063;-94
2023/12/18 03:06:50;;;;;;;124.15;12.15;;;;;;;;;;4892803;29;20119;-93
2023/12/18 03:09:17;;;;;;;102.82;11.10;;;;;;;;;;4901149;29;20067;-93
2023/12/18 03:11:44;;;;;;;37.33;8.40;;;;;;;;;;4903323;29;20037;-93
2023/12/18 03:14:11;;;;;;;60.20;9.30;;;;;;;;;;4883376;29;20048;-93
2023/12/18 03:16:40;;;;;;;123.47;13.07;;;;;;;;;;4907164;29;20385;-94
2023/12/18 03:19:07;;;;;;;24.55;7.20;;;;;;;;;;4899850;29;20037;-93
2023/12/18 03:21:36;;;;;;;30.30;8.30;;;;;;;;;;4904926;29;20040;-93
2023/12/18 03:24:03;;;;;;;102.60;11.60;;;;;;;;;;4886131;29;20099;-94
2023/12/18 03:26:30;;;;;;;58.40;9.32;;;;;;;;;;4905073;29;20048;-93
2023/12/18 03:29:00;;;;;;;50.70;8.35;;;;;;;;;;4904236;29;20511;-93
2023/12/18 03:31:26;;;;;;;122.80;12.63;;;;;;;;;;4903206;29;20045;-93
2023/12/18 03:33:53;;;;;;;54.28;8.80;;;;;;;;;;4889204;29;20042;-93
2023/12/18 03:36:20;;;;;;;47.42;9.02;;;;;;;;;;4903296;29;20074;-93
2023/12/18 03:38:47;;;;;;;127.45;12.52;;;;;;;;;;4886323;29;20052;-93
2023/12/18 03:41:14;;;;;;;56.08;9.15;;;;;;;;;;4896704;29;20049;-93
2023/12/18 03:43:40;;;;;;;27.10;8.15;;;;;;;;;;4903210;29;20036;-93
2023/12/18 03:46:07;;;;;;;71.80;10.10;;;;;;;;;;4884369;29;20127;-93
2023/12/18 03:48:34;;;;;;;69.07;10.30;;;;;;;;;;4906128;29;20040;-93
2023/12/18 03:51:03;;;;;;;79.40;11.05;;;;;;;;;;4899308;29;20463;-93
2023/12/18 03:53:36;;;;;;;70.47;9.82;;;;;;;;;;4885063;29;20451;-94
2023/12/18 03:56:04;;;;;;;50.63;8.05;;;;;;;;;;4904656;29;20479;-92
2023/12/18 03:58:31;;;;;;;23.52;6.82;;;;;;;;;;4898814;29;20096;-93
2023/12/18 04:00:57;;;;;;;127.30;12.98;;;;;;;;;;4905626;29;20055;-94
2023/12/18 04:03:24;;;;;;;116.68;11.60;;;;;;;;;;4881303;29;20049;-93
2023/12/18 04:05:52;;;;;;;48.58;8.35;;;;;;;;;;4876498;29;20096;-93
2023/12/18 04:08:19;;;;;;;125.45;13.07;;;;;;;;;;4894632;29;20070;-93
2023/12/18 04:10:46;;;;;;;77.82;10.32;;;;;;;;;;4900129;29;20041;-94
2023/12/18 04:13:12;;;;;;;23.73;7.53;;;;;;;;;;4899575;29;20056;-93
2023/12/18 04:15:39;;;;;;;63.97;9.98;;;;;;;;;;4903484;29;20032;-94
2023/12/18 04:18:06;;;;;;;82.85;10.10;;;;;;;;;;4898599;29;20071;-93
2023/12/18 04:20:34;;;;;;;90.47;10.20;;;;;;;;;;4904507;29;20103;-94
2023/12/18 04:23:03;;;;;;;84.90;10.98;;;;;;;;;;4900961;29;20032;-93
2023/12/18 04:25:30;;;;;;;103.65;11.50;;;;;;;;;;4892522;29;20040;-93
2023/12/18 04:27:59;;;;;;;63.45;8.80;;;;;;;;;;4885157;29;20488;-93
2023/12/18 04:30:26;;;;;;;93.95;10.55;;;;;;;;;;4881713;29;20056;-93
2023/12/18 04:32:52;;;;;;;75.63;9.30;;;;;;;;;;4906465;29;20048;-93
2023/12/18 04:35:19;;;;;;;85.05;10.15;;;;;;;;;;4894894;29;20041;-93
2023/12/18 04:37:46;;;;;;;74.60;10.23;;;;;;;;;;4906049;29;20423;-93
2023/12/18 04:40:13;;;;;;;35.47;7.55;;;;;;;;;;4900305;29;20036;-93
2023/12/18 04:42:43;;;;;;;127.15;13.15;;;;;;;;;;4896819;29;20048;-93
2023/12/18 04:45:12;;;;;;;65.05;9.13;;;;;;;;;;4893200;29;20053;-93
2023/12/18 04:47:39;;;;;;;23.60;5.90;;;;;;;;;;4902775;29;20086;-93
2023/12/18 04:50:07;;;;;;;92.65;10.48;;;;;;;;;;4897356;29;20108;-93
2023/12/18 04:52:33;;;;;;;75.72;10.63;;;;;;;;;;4903357;29;20068;-93
2023/12/18 04:55:00;;;;;;;39.83;8.05;;;;;;;;;;4903029;29;20155;-93
2023/12/18 04:57:27;;;;;;;88.60;10.52;;;;;;;;;;4898901;29;20036;-92
2023/12/18 04:59:54;;;;;;;92.47;11.85;;;;;;;;;;4907418;29;20583;-93
2023/12/18 05:02:20;;;;;;;62.80;9.20;;;;;;;;;;4898743;29;20112;-93
2023/12/18 05:04:50;;;;;;;129.32;12.50;;;;;;;;;;4890370;29;20044;-93
2023/12/18 05:07:22;;;;;;;116.82;11.38;;;;;;;;;;4898986;29;20045;-93
2023/12/18 05:09:48;;;;;;;77.32;10.55;;;;;;;;;;4902935;29;20040;-92
2023/12/18 05:12:15;;;;;;;42.50;8.30;;;;;;;;;;4886426;29;20123;-93
2023/12/18 05:14:42;;;;;;;105.38;11.88;;;;;;;;;;4901436;29;20128;-92
2023/12/18 05:17:09;;;;;;;26.13;8.35;;;;;;;;;;4885152;29;20069;-93
2023/12/18 05:19:35;;;;;;;21.42;7.07;;;;;;;;;;4897228;29;20068;-92
2023/12/18 05:22:07;;;;;;;80.55;10.55;;;;;;;;;;4885330;29;20033;-93
2023/12/18 05:24:33;;;;;;;34.92;7.70;;;;;;;;;;4893162;29;20544;-93
2023/12/18 05:27:00;;;;;;;69.22;9.13;;;;;;;;;;4906345;29;20037;-93
2023/12/18 05:29:27;;;;;;;111.72;11.43;;;;;;;;;;4882894;29;20670;-93
2023/12/18 05:31:54;;;;;;;74.63;10.32;;;;;;;;;;4907077;29;20093;-92
2023/12/18 05:34:21;;;;;;;43.05;9.57;;;;;;;;;;4901804;29;20584;-92
2023/12/18 05:36:50;;;;;;;190.77;16.73;;;;;;;;;;4900537;29;20044;-93
2023/12/18 05:39:27;;;;;;;105.22;12.10;;;;;;;;;;4900740;29;20047;-93
2023/12/18 05:41:53;;;;;;;101.70;11.77;;;;;;;;;;4902167;29;20047;-93
2023/12/18 05:44:20;;;;;;;35.17;8.27;;;;;;;;;;4902745;29;20132;-93
2023/12/18 05:46:47;;;;;;;119.63;13.57;;;;;;;;;;4900079;29;20036;-93
2023/12/18 05:49:13;;;;;;;107.50;12.13;;;;;;;;;;4905534;29;20103;-93
2023/12/18 05:51:42;;;;;;;32.85;8.30;;;;;;;;;;4899422;29;20072;-94
2023/12/18 05:54:09;;;;;;;101.55;12.25;;;;;;;;;;4885025;29;20139;-93
2023/12/18 05:56:36;;;;;;;90.63;11.98;;;;;;;;;;4898199;29;20043;-93
2023/12/18 05:59:02;;;;;;;96.25;11.90;;;;;;;;;;4895018;29;20053;-93
2023/12/18 06:01:55;;;;;;;97.97;12.10;;;;;;;;;;4892316;29;20101;-93
2023/12/18 06:04:25;;;;;;;74.47;10.88;;;;;;;;;;4903697;29;20407;-93
2023/12/18 06:06:55;;;;;;;87.60;11.15;;;;;;;;;;4888129;29;20060;-93
2023/12/18 06:09:22;;;;;;;117.40;12.85;;;;;;;;;;4896508;29;20127;-93
2023/12/18 06:11:49;;;;;;;59.35;9.80;;;;;;;;;;4902939;29;20684;-92
2023/12/18 06:14:16;;;;;;;46.50;9.60;;;;;;;;;;4900506;29;20052;-92
2023/12/18 06:16:42;;;;;;;172.30;15.88;;;;;;;;;;4907898;29;20048;-92
2023/12/18 06:19:12;;;;;;;40.00;9.57;;;;;;;;;;4895306;29;20536;-93
2023/12/18 06:22:00;;;;;;;46.42;9.13;;;;;;;;;;4908981;29;20048;-93
2023/12/18 06:24:38;;;;;;;58.20;10.18;;;;;;;;;;4885046;29;20047;-92
2023/12/18 06:27:08;;;;;;;74.35;10.73;;;;;;;;;;4877864;29;20112;-91
2023/12/18 06:29:36;;;;;;;49.88;10.90;;;;;;;;;;4900284;29;20056;-92
2023/12/18 06:32:03;;;;;;;95.70;12.60;;;;;;;;;;4893888;29;20412;-92
2023/12/18 06:34:30;;;;;;;101.90;12.85;;;;;;;;;;4901533;29;20050;-92
2023/12/18 06:36:57;;;;;;;81.13;13.23;;;;;;;;;;4908180;29;20040;-91
2023/12/18 06:39:26;;;;;;;156.10;17.00;;;;;;;;;;4904379;29;20041;-92
2023/12/18 06:41:55;;;;;;;120.25;15.10;;;;;;;;;;4885709;29;20048;-91
2023/12/18 06:44:22;;;;;;;73.60;11.77;;;;;;;;;;4889204;29;20140;-91
2023/12/18 06:46:49;;;;;;;112.25;13.43;;;;;;;;;;4898592;29;20685;-92
2023/12/18 06:49:35;;;;;;;134.57;15.48;;;;;;;;;;4905834;29;20068;-92
2023/12/18 06:52:05;;;;;;;91.13;14.30;;;;;;;;;;4898949;29;20133;-92
2023/12/18 06:54:34;;;;;;;115.47;14.52;;;;;;;;;;4905572;29;20040;-93
2023/12/18 06:57:35;;;;;;;194.55;19.67;;;;;;;;;;4889406;29;20041;-92
2023/12/18 07:00:03;;;;;;;81.85;12.48;;;;;;;;;;4906843;29;20108;-92
2023/12/18 07:06:05;;;;;;;153.18;17.40;;;;;;;;;;4904829;29;20056;-92
2023/12/18 07:09:00;;;;;;;141.02;15.85;;;;;;;;;;4900087;29;20135;-92
2023/12/18 07:12:06;;;;;;;40.63;10.75;;;;;;;;;;4895329;29;20053;-92
2023/12/18 07:15:14;;;;;;;67.15;11.93;;;;;;;;;;4848673;29;20437;-92
2023/12/18 07:17:41;;;;;;;75.75;12.48;;;;;;;;;;4891850;29;20539;-92
2023/12/18 07:24:43;;;;;;;76.72;12.30;;;;;;;;;;4884323;29;20044;-93
2023/12/18 07:27:17;;;;;;;71.35;12.38;;;;;;;;;;4901105;29;20044;-92
2023/12/18 07:29:54;;;;;;;80.00;13.45;;;;;;;;;;4881772;29;20596;-92
2023/12/18 07:32:25;;;;;;;154.73;16.98;;;;;;;;;;4906967;29;20678;-92
2023/12/18 07:34:51;;;;;;;116.95;14.85;;;;;;;;;;4897823;29;20155;-91
2023/12/18 07:37:28;;;;;;;73.65;12.77;;;;;;;;;;4880058;29;20067;-92
2023/12/18 07:39:55;;;;;;;95.32;12.95;;;;;;;;;;4901016;29;20043;-93
2023/12/18 07:42:23;;;;;;;77.65;13.38;;;;;;;;;;4875339;29;20040;-93
2023/12/18 07:44:49;;;;;;;122.55;14.48;;;;;;;;;;4879172;29;20037;-93
2023/12/18 07:47:17;;;;;;;106.35;13.85;;;;;;;;;;4886961;29;20036;-93
2023/12/18 07:49:44;;;;;;;48.30;11.73;;;;;;;;;;4884682;29;20044;-92
2023/12/18 07:52:16;;;;;;;98.07;14.82;;;;;;;;;;4899531;29;20151;-93
2023/12/18 07:54:43;;;;;;;79.05;14.30;;;;;;;;;;4899460;29;20048;-92
2023/12/18 07:57:10;;;;;;;57.13;12.77;;;;;;;;;;4899885;29;20036;-93
2023/12/18 07:59:39;;;;;;;80.15;12.88;;;;;;;;;;4906570;29;20954;-93
2023/12/18 08:02:09;;;;;;;73.03;12.13;;;;;;;;;;4897604;29;20480;-92
2023/12/18 08:04:36;;;;;;;48.92;10.27;;;;;;;;;;4908926;29;20044;-93
2023/12/18 08:07:04;;;;;;;66.45;12.40;;;;;;;;;;4900498;29;20040;-93
2023/12/18 08:09:32;;;;;;;91.40;12.63;;;;;;;;;;4888870;29;20059;-94
2023/12/18 08:12:00;;;;;;;71.60;10.80;;;;;;;;;;4892873;29;20028;-93
2023/12/18 08:14:27;;;;;;;81.32;12.63;;;;;;;;;;4902563;29;20678;-93
2023/12/18 08:16:54;;;;;;;101.55;13.70;;;;;;;;;;4886537;29;20602;-93
2023/12/18 08:19:21;;;;;;;103.07;13.35;;;;;;;;;;4870604;29;20575;-92
2023/12/18 08:21:48;;;;;;;66.25;11.80;;;;;;;;;;4906059;29;20054;-93
2023/12/18 08:24:15;;;;;;;31.48;9.40;;;;;;;;;;4882015;29;20040;-92
2023/12/18 08:26:45;;;;;;;54.78;11.80;;;;;;;;;;4906255;29;20549;-92
2023/12/18 08:29:12;;;;;;;62.35;12.55;;;;;;;;;;4897998;29;20044;-92
2023/12/18 08:31:39;;;;;;;65.95;12.57;;;;;;;;;;4906686;29;22419;-93
2023/12/18 08:34:05;;;;;;;68.97;11.52;;;;;;;;;;4898173;29;20041;-92
2023/12/18 08:36:34;;;;;;;98.60;13.73;;;;;;;;;;4905796;29;20072;-94
2023/12/18 08:39:00;;;;;;;82.63;12.85;;;;;;;;;;4885431;29;20048;-92
2023/12/18 08:41:27;;;;;;;84.55;12.77;;;;;;;;;;4886089;29;20444;-93
2023/12/18 08:43:54;;;;;;;102.45;13.25;;;;;;;;;;4887807;29;20044;-93
2023/12/18 08:46:31;;;;;;;66.70;11.88;;;;;;;;;;4898094;29;20156;-92
2023/12/18 08:48:58;;;;;;;70.28;12.05;;;;;;;;;;4904000;29;20041;-92
2023/12/18 08:51:24;;;;;;;83.75;13.27;;;;;;;;;;4880838;29;20748;-93
2023/12/18 08:53:51;;;;;;;54.13;11.93;;;;;;;;;;4907272;29;20037;-93
2023/12/18 08:56:19;;;;;;;54.08;12.25;;;;;;;;;;4898270;29;20044;-93
2023/12/18 08:58:45;;;;;;;66.35;11.43;;;;;;;;;;4900847;29;20059;-93
2023/12/18 09:01:12;;;;;;;79.00;12.77;;;;;;;;;;4900768;29;20107;-93
2023/12/18 09:03:39;;;;;;;65.53;12.02;;;;;;;;;;4903937;29;20072;-93
2023/12/18 09:06:05;;;;;;;78.53;12.02;;;;;;;;;;4901136;29;20064;-94
2023/12/18 09:08:39;;;;;;;52.70;11.48;;;;;;;;;;4902517;29;20096;-93
2023/12/18 09:11:09;;;;;;;;;;;;;;;;;;4885634;29;20044;-93
2023/12/18 09:13:36;;;;;;;84.40;13.15;;;;;;;;;;4899987;29;19923;-93
2023/12/18 09:16:04;;;;;;;87.15;13.38;;;;;;;;;;4889132;29;20470;-92
2023/12/18 09:18:32;;;;;;;89.57;12.95;;;;;;;;;;4896844;29;20072;-93
2023/12/18 09:20:59;;;;;;;58.20;12.35;;;;;;;;;;4875330;29;20056;-92
2023/12/18 09:23:26;;;;;;;92.97;13.70;;;;;;;;;;4897131;29;20049;-92
2023/12/18 09:28:56;;;;;;;68.25;11.43;;;;;;;;;;4896137;29;20067;-93
2023/12/18 09:31:23;;;;;;;83.30;12.15;;;;;;;;;;4904189;29;20059;-92
2023/12/18 09:33:50;;;;;;;43.60;10.23;;;;;;;;;;4883457;29;20049;-92
2023/12/18 09:36:17;;;;;;;53.35;11.00;;;;;;;;;;4907691;29;20482;-93
2023/12/18 09:38:44;;;;;;;68.88;12.10;;;;;;;;;;4904841;29;20051;-93
2023/12/18 09:41:19;;;;;;;45.50;10.20;;;;;;;;;;4896805;29;20109;-93
2023/12/18 09:43:46;;;;;;;86.72;13.27;;;;;;;;;;4900915;29;20040;-93
2023/12/18 09:46:14;;;;;;;44.78;11.13;;;;;;;;;;4905886;29;20103;-92
2023/12/18 09:48:41;;;;;;;45.40;10.00;;;;;;;;;;4891118;29;20115;-92
2023/12/18 09:51:09;;;;;;;124.78;14.82;;;;;;;;;;4901531;29;20049;-92
2023/12/18 09:53:35;;;;;;;54.40;12.20;;;;;;;;;;4911241;29;20048;-92
2023/12/18 09:56:02;;;;;;;75.50;12.45;;;;;;;;;;4900061;29;20096;-92
2023/12/18 09:58:29;;;;;;;98.10;12.68;;;;;;;;;;4910261;29;20040;-92
2023/12/18 10:00:56;;;;;;;80.55;12.05;;;;;;;;;;4902525;29;20045;-93
2023/12/18 10:03:23;;;;;;;92.43;12.85;;;;;;;;;;4904542;29;20056;-93
2023/12/18 10:05:54;;;;;;;92.38;12.75;;;;;;;;;;4888456;29;20567;-93
2023/12/18 10:08:26;;;;;;;50.90;11.07;;;;;;;;;;4900371;29;20385;-93
2023/12/18 10:10:53;;;;;;;40.78;9.65;;;;;;;;;;4892925;29;20052;-94
2023/12/18 10:13:20;;;;;;;105.82;13.55;;;;;;;;;;4904416;29;20064;-93
2023/12/18 10:15:58;;;;;;;58.95;11.10;;;;;;;;;;4909085;29;20506;-93
2023/12/18 10:18:26;;;;;;;80.72;12.10;;;;;;;;;;4885855;29;20040;-93
2023/12/18 10:20:58;;;;;;;83.47;12.80;;;;;;;;;;4907520;29;20080;-92
2023/12/18 10:23:35;;;;;;;102.47;14.98;;;;;;;;;;4899267;29;20037;-92
2023/12/18 10:26:36;;;;;;;;;;;;;;;;;;;;;
2023/12/18 10:29:19;;;;;;;97.72;14.02;;;;;;;;;;4900331;29;20500;-92
2023/12/18 10:31:49;;;;;;;92.45;13.95;;;;;;;;;;4907697;29;20119;-94
2023/12/18 10:34:53;;;;;;;59.40;12.07;;;;;;;;;;4890909;29;20624;-92
2023/12/18 10:37:28;;;;;;;90.15;12.98;;;;;;;;;;4872364;29;20468;-93
2023/12/18 10:40:06;;;;;;;67.70;13.50;;;;;;;;;;4880568;29;20112;-92
2023/12/18 10:42:38;;;;;;;113.10;15.32;;;;;;;;;;4908046;29;20571;-92
2023/12/18 10:45:08;;;;;;;56.45;10.35;;;;;;;;;;4879507;29;20056;-93
2023/12/18 10:47:39;;;;;;;73.05;13.13;;;;;;;;;;4907923;29;20040;-93
2023/12/18 10:50:12;;;;;;;135.85;15.82;;;;;;;;;;4900518;29;20049;-92
2023/12/18 10:56:09;;;;;;;48.67;10.83;;;;;;;;;;4894762;29;20077;-92
2023/12/18 10:58:38;;;;;;;96.53;14.73;;;;;;;;;;4922778;29;20412;-92
2023/12/18 11:01:05;;;;;;;62.90;13.20;;;;;;;;;;4900236;29;20525;-92
2023/12/18 11:03:33;;;;;;;88.53;14.23;;;;;;;;;;4909519;29;20044;-91
2023/12/18 11:06:00;;;;;;;94.05;14.07;;;;;;;;;;4902456;29;20132;-91
2023/12/18 11:08:26;;;;;;;60.88;13.93;;;;;;;;;;4907252;29;20139;-92
2023/12/18 11:10:54;;;;;;;43.75;12.95;;;;;;;;;;4903062;29;20054;-92
2023/12/18 11:13:21;;;;;;;96.40;16.63;;;;;;;;;;4887245;29;20040;-91
2023/12/18 11:16:01;;;;;;;49.65;13.02;;;;;;;;;;4905716;29;20403;-91
2023/12/18 11:18:27;;;;;;;91.05;15.77;;;;;;;;;;4901040;29;20115;-91
2023/12/18 11:20:55;;;;;;;66.65;13.32;;;;;;;;;;4906299;29;20071;-92
2023/12/18 11:23:24;;;;;;;52.15;13.43;;;;;;;;;;4897877;29;20047;-91
2023/12/18 11:25:51;;;;;;;71.95;14.82;;;;;;;;;;4902409;29;20040;-94
2023/12/18 11:28:24;;;;;;;65.85;14.30;;;;;;;;;;4898492;29;20407;-92
2023/12/18 11:30:54;;;;;;;86.85;15.30;;;;;;;;;;4903109;29;20048;-92
2023/12/18 11:33:21;;;;;;;65.65;14.02;;;;;;;;;;4894323;29;20401;-94
2023/12/18 11:35:48;;;;;;;44.10;12.05;;;;;;;;;;4892477;29;20068;-92
2023/12/18 11:38:18;;;;;;;89.25;14.93;;;;;;;;;;4904147;29;20047;-92
2023/12/18 11:40:45;;;;;;;118.95;14.65;;;;;;;;;;4901462;29;20048;-95
2023/12/18 11:43:13;;;;;;;48.33;12.93;;;;;;;;;;4905950;29;20048;-95
2023/12/18 11:45:41;;;;;;;58.75;12.80;;;;;;;;;;4903486;29;20032;-94
2023/12/18 11:48:12;;;;;;;71.78;13.18;;;;;;;;;;4906004;29;20060;-93
2023/12/18 11:50:40;;;;;;;98.32;14.75;;;;;;;;;;4900702;29;20052;-92
2023/12/18 11:53:22;;;;;;;99.47;14.32;;;;;;;;;;4909780;29;20036;-93
2023/12/18 11:55:50;;;;;;;65.97;14.02;;;;;;;;;;4900415;29;20047;-92
2023/12/18 11:58:24;;;;;;;46.47;11.95;;;;;;;;;;4908132;29;20100;-92
2023/12/18 12:00:51;;;;;;;75.13;14.75;;;;;;;;;;4899510;29;20048;-91
2023/12/18 12:03:18;;;;;;;24.67;8.75;;;;;;;;;;4904920;29;20445;-92
2023/12/18 12:05:45;;;;;;;76.53;14.43;;;;;;;;;;4903044;29;20096;-92
2023/12/18 12:08:12;;;;;;;86.75;14.43;;;;;;;;;;4900903;29;20143;-92
2023/12/18 12:10:43;;;;;;;62.22;13.15;;;;;;;;;;4900425;29;20040;-92
2023/12/18 12:13:18;;;;;;;36.88;11.27;;;;;;;;;;4901332;29;20047;-93
2023/12/18 12:15:55;;;;;;;46.22;13.38;;;;;;;;;;4904420;29;20037;-92
2023/12/18 12:18:25;;;;;;;41.42;12.82;;;;;;;;;;4889333;29;20040;-92
2023/12/18 12:20:52;;;;;;;77.30;14.23;;;;;;;;;;4899912;29;20099;-92
2023/12/18 12:23:19;;;;;;;49.63;13.30;;;;;;;;;;4877216;29;20056;-92
2023/12/18 12:25:47;;;;;;;51.53;12.77;;;;;;;;;;4898250;29;20036;-93
2023/12/18 12:28:14;;;;;;;47.75;12.52;;;;;;;;;;4890028;29;20052;-93
2023/12/18 12:30:44;;;;;;;205.65;25.52;;;;;;;;;;4907239;29;20040;-92
2023/12/18 12:33:16;;;;;;;57.55;13.13;;;;;;;;;;4895881;29;20052;-92
2023/12/18 12:35:43;;;;;;;40.95;13.05;;;;;;;;;;4906468;29;20356;-92
2023/12/18 12:38:10;;;;;;;77.70;14.82;;;;;;;;;;4899885;29;20064;-92
2023/12/18 12:40:40;;;;;;;178.38;22.45;;;;;;;;;;4900623;29;20867;-92
2023/12/18 12:43:07;;;;;;;63.50;13.88;;;;;;;;;;4887351;29;20041;-92
2023/12/18 12:45:34;;;;;;;58.15;12.90;;;;;;;;;;4881295;29;20044;-91
2023/12/18 12:48:01;;;;;;;48.42;12.63;;;;;;;;;;4886918;29;20040;-92
2023/12/18 12:50:28;;;;;;;31.63;11.95;;;;;;;;;;4896884;29;20548;-92
2023/12/18 12:52:56;;;;;;;29.08;11.65;;;;;;;;;;4908882;29;20379;-92
2023/12/18 12:55:23;;;;;;;74.65;14.93;;;;;;;;;;4896700;29;20108;-92
2023/12/18 12:57:50;;;;;;;28.48;10.82;;;;;;;;;;4908572;29;20120;-92
2023/12/18 13:00:20;;;;;;;57.53;12.07;;;;;;;;;;4896992;29;20041;-91
2023/12/18 13:02:47;;;;;;;81.82;14.70;;;;;;;;;;4895588;29;20060;-93
2023/12/18 13:05:13;;;;;;;266.38;28.85;;;;;;;;;;4889749;29;20120;-92
2023/12/18 13:07:40;;;;;;;74.45;14.52;;;;;;;;;;4892954;29;20387;-92
2023/12/18 13:10:09;;;;;;;67.78;14.60;;;;;;;;;;4874060;29;20040;-92
2023/12/18 13:12:36;;;;;;;78.80;16.13;;;;;;;;;;4896319;29;20036;-92
2023/12/18 13:15:04;;;;;;;37.17;13.40;;;;;;;;;;4905953;29;20487;-92
2023/12/18 13:17:30;;;;;;;137.02;20.00;;;;;;;;;;4897139;29;20084;-93
2023/12/18 13:19:57;;;;;;;57.25;13.60;;;;;;;;;;4896608;29;20037;-93
2023/12/18 13:22:31;;;;;;;39.40;14.85;;;;;;;;;;4902789;29;20032;-93
2023/12/18 13:24:58;;;;;;;45.75;14.38;;;;;;;;;;4906456;29;20123;-92
2023/12/18 13:27:26;;;;;;;538.38;54.28;;;;;;;;;;4871410;29;20577;-90
2023/12/18 13:29:53;;;;;;;26.80;12.30;;;;;;;;;;4896749;29;20514;-92
2023/12/18 13:32:21;;;;;;;36.38;14.35;;;;;;;;;;4892554;29;20048;-91
2023/12/18 13:34:48;;;;;;;83.80;16.02;;;;;;;;;;4906922;29;20040;-91
2023/12/18 13:37:15;;;;;;;62.78;14.27;;;;;;;;;;4908427;29;20396;-91
2023/12/18 13:39:41;;;;;;;58.53;14.30;;;;;;;;;;4883559;29;20041;-92
2023/12/18 13:42:09;;;;;;;94.35;17.77;;;;;;;;;;4911154;29;20047;-92
2023/12/18 13:44:36;;;;;;;482.17;51.15;;;;;;;;;;4851526;29;20041;-91
2023/12/18 13:47:03;;;;;;;40.22;14.50;;;;;;;;;;4909954;29;20032;-91
2023/12/18 13:49:30;;;;;;;56.80;15.43;;;;;;;;;;4906164;29;20064;-91
2023/12/18 13:51:57;;;;;;;61.70;16.20;;;;;;;;;;4904160;29;20043;-93
2023/12/18 13:54:24;;;;;;;31.02;14.48;;;;;;;;;;4907827;29;20083;-92
2023/12/18 13:56:51;;;;;;;47.38;14.85;;;;;;;;;;4907390;29;20044;-92
2023/12/18 13:59:17;;;;;;;60.85;14.00;;;;;;;;;;4906862;29;20040;-92
2023/12/18 14:01:44;;;;;;;47.70;14.35;;;;;;;;;;4905866;29;20040;-92
2023/12/18 14:04:11;;;;;;;75.40;15.95;;;;;;;;;;4894917;29;20046;-93
2023/12/18 14:06:38;;;;;;;77.95;15.82;;;;;;;;;;4901611;29;20033;-93
2023/12/18 14:09:05;;;;;;;49.75;14.02;;;;;;;;;;4908706;29;20060;-92
2023/12/18 14:11:32;;;;;;;39.60;13.63;;;;;;;;;;4897665;29;20476;-92
2023/12/18 14:13:59;;;;;;;54.90;14.70;;;;;;;;;;4887379;29;20092;-92
2023/12/18 14:16:25;;;;;;;32.03;14.00;;;;;;;;;;4894396;29;20035;-92
2023/12/18 14:18:53;;;;;;;44.60;14.40;;;;;;;;;;4858161;29;20052;-91
2023/12/18 14:21:21;;;;;;;62.85;15.57;;;;;;;;;;4904901;29;20140;-92
2023/12/18 14:23:48;;;;;;;42.00;14.25;;;;;;;;;;4887055;29;20589;-92
2023/12/18 14:26:15;;;;;;;87.03;16.55;;;;;;;;;;4908112;29;20048;-93
2023/12/18 14:28:42;;;;;;;76.10;16.27;;;;;;;;;;4884400;29;20081;-90
2023/12/18 14:31:09;;;;;;;57.25;15.73;;;;;;;;;;4908828;29;20060;-91
2023/12/18 14:33:36;;;;;;;44.80;13.75;;;;;;;;;;4901040;29;20075;-93
2023/12/18 14:36:03;;;;;;;84.57;16.55;;;;;;;;;;4908439;29;20028;-92
2023/12/18 14:38:30;;;;;;;45.03;14.38;;;;;;;;;;4903572;29;20064;-92
2023/12/18 14:40:56;;;;;;;64.20;14.57;;;;;;;;;;4906651;29;20127;-92